Time;durP1;ratioP1;P1;durP2;ratioP2;P2;SDS_P1;SDS_P2;PMS_P1;PMS_P2;Temp;Humidity;BMP_temperature;BMP_pressure;BME280_temperature;BME280_humidity;BME280_pressure;Samples;Min_cycle;Max_cycle;Signal;HPM_P1;HPM_P2
2021/11/10 00:01:30;;;;;;;28.67;14.23;;;;;;;;;;5012407;28;20190;-70
2021/11/10 00:03:55;;;;;;;33.73;14.43;;;;;;;;;;5001289;28;20638;-70
2021/11/10 00:06:21;;;;;;;36.23;15.30;;;;;;;;;;5015246;28;20657;-70
2021/11/10 00:08:46;;;;;;;26.40;14.73;;;;;;;;;;5003108;28;20193;-70
2021/11/10 00:11:11;;;;;;;27.13;14.13;;;;;;;;;;5009000;28;20193;-70
2021/11/10 00:13:37;;;;;;;25.57;12.73;;;;;;;;;;5013208;28;20224;-71
2021/11/10 00:16:02;;;;;;;27.03;13.93;;;;;;;;;;5005676;28;20225;-71
2021/11/10 00:18:28;;;;;;;26.87;14.17;;;;;;;;;;5008900;28;20329;-71
2021/11/10 00:20:53;;;;;;;27.40;14.80;;;;;;;;;;5000175;28;20198;-71
2021/11/10 00:23:19;;;;;;;27.07;13.67;;;;;;;;;;5010510;28;20235;-71
2021/11/10 00:25:45;;;;;;;30.17;14.77;;;;;;;;;;5004042;28;20195;-71
2021/11/10 00:28:10;;;;;;;22.90;13.77;;;;;;;;;;5012860;28;20194;-69
2021/11/10 00:30:36;;;;;;;26.17;14.17;;;;;;;;;;5003111;28;20190;-70
2021/11/10 00:33:01;;;;;;;26.07;13.63;;;;;;;;;;5013066;28;20197;-69
2021/11/10 00:35:27;;;;;;;31.33;13.87;;;;;;;;;;5000777;28;20565;-70
2021/11/10 00:37:53;;;;;;;36.77;13.83;;;;;;;;;;5017907;28;20537;-70
2021/11/10 00:40:18;;;;;;;31.13;13.67;;;;;;;;;;5000079;28;20197;-70
2021/11/10 00:42:43;;;;;;;35.73;13.67;;;;;;;;;;5014134;28;20197;-70
2021/11/10 00:45:09;;;;;;;33.77;13.57;;;;;;;;;;5010211;28;20237;-70
2021/11/10 00:47:35;;;;;;;27.40;14.30;;;;;;;;;;5005190;28;20577;-70
2021/11/10 00:50:00;;;;;;;31.13;13.77;;;;;;;;;;5013018;28;20191;-70
2021/11/10 00:52:26;;;;;;;32.73;14.17;;;;;;;;;;5003954;28;22050;-70
2021/11/10 00:54:52;;;;;;;31.63;15.13;;;;;;;;;;5009910;28;20190;-70
2021/11/10 00:57:18;;;;;;;27.20;13.03;;;;;;;;;;5007455;28;20202;-70
2021/11/10 00:59:43;;;;;;;28.67;13.50;;;;;;;;;;5008395;28;20187;-70
2021/11/10 01:02:09;;;;;;;24.43;12.73;;;;;;;;;;5007102;28;20190;-70
2021/11/10 01:04:34;;;;;;;27.87;13.83;;;;;;;;;;5010972;28;20317;-70
2021/11/10 01:07:00;;;;;;;24.43;13.40;;;;;;;;;;5006384;28;20190;-70
2021/11/10 01:09:26;;;;;;;37.73;13.80;;;;;;;;;;5011626;28;20271;-70
2021/11/10 01:11:51;;;;;;;32.17;13.37;;;;;;;;;;5003808;28;20174;-70
2021/11/10 01:14:19;;;;;;;32.97;14.67;;;;;;;;;;5008336;28;20282;-71
2021/11/10 01:16:45;;;;;;;31.70;15.50;;;;;;;;;;5010595;28;20206;-69
2021/11/10 01:19:11;;;;;;;36.90;16.20;;;;;;;;;;5002898;28;20193;-69
2021/11/10 01:21:36;;;;;;;26.47;15.10;;;;;;;;;;5016941;28;20555;-69
2021/11/10 01:24:02;;;;;;;39.00;16.00;;;;;;;;;;5001413;28;20210;-71
2021/11/10 01:26:28;;;;;;;40.37;15.80;;;;;;;;;;5015987;28;20244;-70
2021/11/10 01:28:53;;;;;;;34.00;16.27;;;;;;;;;;5009353;28;20201;-70
2021/11/10 01:31:20;;;;;;;37.60;15.37;;;;;;;;;;5017289;28;20194;-70
2021/11/10 01:33:45;;;;;;;31.03;14.83;;;;;;;;;;5010260;28;20265;-70
2021/11/10 01:36:11;;;;;;;31.90;13.83;;;;;;;;;;5010648;28;20293;-70
2021/11/10 01:38:36;;;;;;;29.60;14.83;;;;;;;;;;5004789;28;20274;-70
2021/11/10 01:41:03;;;;;;;37.90;15.80;;;;;;;;;;5009940;28;20183;-70
2021/11/10 01:43:29;;;;;;;30.63;14.80;;;;;;;;;;5005641;28;20214;-69
2021/11/10 01:45:56;;;;;;;29.57;13.77;;;;;;;;;;5009496;28;20909;-70
2021/11/10 01:48:22;;;;;;;29.23;14.13;;;;;;;;;;5011137;28;21891;-70
2021/11/10 01:50:47;;;;;;;27.27;14.23;;;;;;;;;;5001934;28;20197;-70
2021/11/10 01:53:13;;;;;;;26.47;13.47;;;;;;;;;;5009206;28;20555;-70
2021/11/10 01:55:39;;;;;;;29.37;14.70;;;;;;;;;;5005768;28;20309;-70
2021/11/10 01:58:05;;;;;;;31.47;13.23;;;;;;;;;;5012095;28;20233;-70
2021/11/10 02:00:33;;;;;;;34.00;13.97;;;;;;;;;;5002207;28;20190;-70
2021/11/10 02:02:58;;;;;;;29.43;12.13;;;;;;;;;;5012172;28;20223;-70
2021/11/10 02:05:24;;;;;;;28.83;12.47;;;;;;;;;;5004504;28;20195;-70
2021/11/10 02:07:50;;;;;;;27.90;12.77;;;;;;;;;;5011400;28;20182;-70
2021/11/10 02:10:17;;;;;;;25.03;12.47;;;;;;;;;;5003071;28;20288;-70
2021/11/10 02:12:43;;;;;;;25.43;12.73;;;;;;;;;;5012949;28;20186;-70
2021/11/10 02:15:12;;;;;;;30.07;13.23;;;;;;;;;;5011668;28;20187;-70
2021/11/10 02:17:38;;;;;;;29.70;12.40;;;;;;;;;;5009910;28;20252;-70
2021/11/10 02:20:06;;;;;;;35.13;14.27;;;;;;;;;;5014610;28;20190;-70
2021/11/10 02:22:33;;;;;;;31.70;13.87;;;;;;;;;;5002794;28;20244;-70
2021/11/10 02:24:58;;;;;;;28.37;12.20;;;;;;;;;;5014372;28;20221;-70
2021/11/10 02:27:32;;;;;;;23.23;12.47;;;;;;;;;;5004564;28;20574;-70
2021/11/10 02:29:57;;;;;;;24.63;12.57;;;;;;;;;;5015178;28;20186;-70
2021/11/10 02:32:23;;;;;;;24.93;12.20;;;;;;;;;;5004385;28;20194;-70
2021/11/10 02:34:48;;;;;;;24.63;12.57;;;;;;;;;;5014198;28;20178;-70
2021/11/10 02:37:17;;;;;;;27.83;12.43;;;;;;;;;;5001807;28;20191;-70
2021/11/10 02:39:42;;;;;;;30.40;13.07;;;;;;;;;;5011334;28;20202;-70
2021/11/10 02:42:08;;;;;;;28.00;12.23;;;;;;;;;;5001149;28;20190;-70
2021/11/10 02:44:34;;;;;;;30.03;12.43;;;;;;;;;;5008334;28;20199;-70
2021/11/10 02:47:00;;;;;;;30.40;13.30;;;;;;;;;;5009367;28;20190;-70
2021/11/10 02:49:25;;;;;;;18.83;10.57;;;;;;;;;;5010288;28;20218;-70
2021/11/10 02:52:06;;;;;;;24.53;11.37;;;;;;;;;;5013194;28;20585;-70
2021/11/10 02:54:35;;;;;;;23.23;11.23;;;;;;;;;;5006099;28;20558;-70
2021/11/10 02:57:03;;;;;;;21.40;11.60;;;;;;;;;;5010890;28;20226;-70
2021/11/10 02:59:29;;;;;;;27.80;11.87;;;;;;;;;;4999051;28;20293;-70
2021/11/10 03:01:55;;;;;;;27.27;11.93;;;;;;;;;;5010688;28;20283;-70
2021/11/10 03:04:23;;;;;;;25.63;12.20;;;;;;;;;;5001055;28;20258;-70
2021/11/10 03:06:49;;;;;;;24.17;11.37;;;;;;;;;;5009230;28;20972;-70
2021/11/10 03:09:20;;;;;;;24.93;11.80;;;;;;;;;;4999651;28;20325;-70
2021/11/10 03:11:46;;;;;;;29.20;12.77;;;;;;;;;;5008850;28;20204;-70
2021/11/10 03:14:12;;;;;;;25.93;11.93;;;;;;;;;;4998655;28;20240;-70
2021/11/10 03:16:38;;;;;;;26.73;11.70;;;;;;;;;;5008398;28;20789;-70
2021/11/10 03:19:03;;;;;;;21.37;10.57;;;;;;;;;;4999098;28;20191;-70
2021/11/10 03:21:29;;;;;;;26.17;11.30;;;;;;;;;;5008579;28;20654;-70
2021/11/10 03:23:54;;;;;;;26.07;11.93;;;;;;;;;;4999433;28;20289;-70
2021/11/10 03:26:22;;;;;;;21.87;11.40;;;;;;;;;;5010931;28;20194;-70
2021/11/10 03:28:47;;;;;;;32.50;12.20;;;;;;;;;;5009173;28;20276;-70
2021/11/10 03:31:12;;;;;;;23.17;10.57;;;;;;;;;;5002650;28;20278;-70
2021/11/10 03:33:38;;;;;;;28.17;12.00;;;;;;;;;;5008847;28;20233;-70
2021/11/10 03:36:03;;;;;;;30.30;12.93;;;;;;;;;;4999290;28;20186;-70
2021/11/10 03:38:29;;;;;;;31.37;12.50;;;;;;;;;;5006061;28;20274;-70
2021/11/10 03:40:54;;;;;;;33.27;13.13;;;;;;;;;;5000859;28;20182;-70
2021/11/10 03:43:20;;;;;;;31.93;11.70;;;;;;;;;;5006826;28;20281;-70
2021/11/10 03:45:45;;;;;;;34.00;13.73;;;;;;;;;;4999746;28;20252;-70
2021/11/10 03:48:12;;;;;;;23.60;11.70;;;;;;;;;;5004866;28;20305;-70
2021/11/10 03:50:39;;;;;;;25.87;11.83;;;;;;;;;;5000061;28;20178;-70
2021/11/10 03:53:05;;;;;;;29.53;12.43;;;;;;;;;;5006469;28;20191;-70
2021/11/10 03:55:37;;;;;;;29.37;13.40;;;;;;;;;;5001743;28;20253;-70
2021/11/10 03:58:07;;;;;;;32.27;13.13;;;;;;;;;;5005470;28;20241;-70
2021/11/10 04:00:33;;;;;;;27.47;11.73;;;;;;;;;;5008640;28;20548;-70
2021/11/10 04:02:58;;;;;;;30.50;12.70;;;;;;;;;;4998318;28;20227;-70
2021/11/10 04:05:25;;;;;;;29.13;12.27;;;;;;;;;;5008793;28;20542;-70
2021/11/10 04:07:50;;;;;;;29.10;12.30;;;;;;;;;;4996805;28;20290;-70
2021/11/10 04:10:15;;;;;;;35.40;14.03;;;;;;;;;;5008488;28;20201;-70
2021/11/10 04:12:41;;;;;;;33.20;13.73;;;;;;;;;;4998071;28;20182;-70
2021/11/10 04:15:07;;;;;;;31.33;13.57;;;;;;;;;;5006483;28;20547;-70
2021/11/10 04:17:32;;;;;;;25.87;13.77;;;;;;;;;;4997404;28;20255;-70
2021/11/10 04:19:58;;;;;;;29.03;12.60;;;;;;;;;;5005472;28;20195;-70
2021/11/10 04:22:23;;;;;;;31.67;13.10;;;;;;;;;;4995966;28;20770;-70
2021/11/10 04:24:50;;;;;;;29.20;12.90;;;;;;;;;;5005632;28;20238;-70
2021/11/10 04:27:18;;;;;;;34.27;13.60;;;;;;;;;;4998815;28;20195;-70
2021/11/10 04:29:47;;;;;;;28.73;12.70;;;;;;;;;;5007560;28;20195;-70
2021/11/10 04:32:13;;;;;;;28.30;13.20;;;;;;;;;;5008777;28;20897;-70
2021/11/10 04:34:39;;;;;;;30.37;12.77;;;;;;;;;;4999349;28;20289;-70
2021/11/10 04:37:05;;;;;;;24.17;11.03;;;;;;;;;;5006087;28;20194;-70
2021/11/10 04:39:31;;;;;;;28.73;13.27;;;;;;;;;;4994751;28;20510;-70
2021/11/10 04:41:56;;;;;;;26.83;12.27;;;;;;;;;;5009764;28;20193;-70
2021/11/10 04:44:23;;;;;;;27.93;12.60;;;;;;;;;;4998605;28;20203;-70
2021/11/10 04:46:49;;;;;;;27.07;12.80;;;;;;;;;;5006217;28;20298;-70
2021/11/10 04:49:16;;;;;;;28.73;12.43;;;;;;;;;;4996899;28;20308;-70
2021/11/10 04:51:42;;;;;;;28.80;13.00;;;;;;;;;;5009722;28;20703;-70
2021/11/10 04:54:09;;;;;;;33.20;14.10;;;;;;;;;;4998509;28;20194;-70
2021/11/10 04:56:38;;;;;;;26.50;11.33;;;;;;;;;;5007275;28;20205;-70
2021/11/10 04:59:04;;;;;;;24.47;12.20;;;;;;;;;;4995915;28;20187;-70
2021/11/10 05:01:32;;;;;;;25.23;11.63;;;;;;;;;;5006078;28;20199;-70
2021/11/10 05:03:58;;;;;;;22.23;11.07;;;;;;;;;;5007439;28;20226;-70
2021/11/10 05:06:24;;;;;;;26.20;12.00;;;;;;;;;;4999156;28;20186;-70
2021/11/10 05:08:50;;;;;;;22.83;11.03;;;;;;;;;;5006295;28;20193;-70
2021/11/10 05:11:16;;;;;;;27.87;13.57;;;;;;;;;;4998304;28;20646;-70
2021/11/10 05:13:41;;;;;;;26.03;12.70;;;;;;;;;;5007650;28;20214;-70
2021/11/10 05:16:07;;;;;;;26.97;12.40;;;;;;;;;;4999040;28;20268;-70
2021/11/10 05:18:32;;;;;;;28.73;12.27;;;;;;;;;;5005466;28;20183;-70
2021/11/10 05:20:58;;;;;;;33.20;12.60;;;;;;;;;;4999061;28;20681;-70
2021/11/10 05:23:23;;;;;;;30.50;12.50;;;;;;;;;;5007593;28;20564;-70
2021/11/10 05:25:49;;;;;;;24.77;11.43;;;;;;;;;;4998503;28;20267;-70
2021/11/10 05:28:14;;;;;;;28.30;12.47;;;;;;;;;;5008128;28;20264;-70
2021/11/10 05:30:40;;;;;;;23.80;11.73;;;;;;;;;;4998246;28;20417;-70
2021/11/10 05:33:05;;;;;;;25.93;11.73;;;;;;;;;;5004600;28;20182;-70
2021/11/10 05:35:31;;;;;;;29.13;13.80;;;;;;;;;;5003546;28;20190;-70
2021/11/10 05:37:57;;;;;;;30.30;13.80;;;;;;;;;;4997817;28;20548;-70
2021/11/10 05:40:22;;;;;;;28.97;13.77;;;;;;;;;;5005520;28;20202;-70
2021/11/10 05:42:48;;;;;;;28.97;13.10;;;;;;;;;;4998818;28;20194;-71
2021/11/10 05:45:13;;;;;;;28.43;12.07;;;;;;;;;;5004057;28;23196;-71
2021/11/10 05:47:39;;;;;;;30.90;13.17;;;;;;;;;;4996195;28;20665;-70
2021/11/10 05:50:06;;;;;;;29.97;13.67;;;;;;;;;;5001312;28;20183;-71
2021/11/10 05:52:32;;;;;;;34.10;14.17;;;;;;;;;;4998969;28;20285;-70
2021/11/10 05:54:57;;;;;;;34.47;14.20;;;;;;;;;;5006888;28;20198;-71
2021/11/10 05:57:24;;;;;;;32.70;14.33;;;;;;;;;;4997557;28;21114;-71
2021/11/10 05:59:49;;;;;;;34.73;13.70;;;;;;;;;;5007045;28;20208;-70
2021/11/10 06:02:14;;;;;;;41.17;15.87;;;;;;;;;;5004301;28;20529;-71
2021/11/10 06:04:43;;;;;;;41.67;17.20;;;;;;;;;;4992651;28;20629;-71
2021/11/10 06:07:08;;;;;;;38.77;16.13;;;;;;;;;;5003909;28;20558;-71
2021/11/10 06:09:35;;;;;;;40.57;14.97;;;;;;;;;;5000735;28;20190;-71
2021/11/10 06:12:00;;;;;;;39.63;15.03;;;;;;;;;;5007340;28;20198;-71
2021/11/10 06:14:25;;;;;;;32.77;15.97;;;;;;;;;;5001472;28;20651;-71
2021/11/10 06:16:51;;;;;;;35.10;15.13;;;;;;;;;;5007397;28;20726;-71
2021/11/10 06:19:16;;;;;;;39.97;15.33;;;;;;;;;;4998839;28;20195;-71
2021/11/10 06:21:41;;;;;;;39.07;15.67;;;;;;;;;;5009753;28;20214;-71
2021/11/10 06:24:07;;;;;;;31.30;14.63;;;;;;;;;;4999725;28;20221;-72
2021/11/10 06:26:32;;;;;;;32.33;16.53;;;;;;;;;;5007696;28;20198;-72
2021/11/10 06:28:58;;;;;;;46.63;17.43;;;;;;;;;;4998214;28;20190;-72
2021/11/10 06:31:23;;;;;;;38.40;17.80;;;;;;;;;;5006892;28;21452;-72
2021/11/10 06:33:49;;;;;;;40.10;17.53;;;;;;;;;;5005770;28;20269;-72
2021/11/10 06:36:14;;;;;;;37.27;16.77;;;;;;;;;;5002171;28;20252;-72
2021/11/10 06:38:40;;;;;;;36.17;15.83;;;;;;;;;;5008871;28;20246;-72
2021/11/10 06:41:05;;;;;;;32.20;14.77;;;;;;;;;;5002973;28;20668;-72
2021/11/10 06:43:30;;;;;;;38.60;15.80;;;;;;;;;;5012456;28;20252;-72
2021/11/10 06:45:56;;;;;;;33.87;14.60;;;;;;;;;;5001316;28;20654;-71
2021/11/10 06:48:22;;;;;;;38.53;15.63;;;;;;;;;;5009217;28;20186;-71
2021/11/10 06:50:48;;;;;;;30.73;14.30;;;;;;;;;;4999539;28;20607;-71
2021/11/10 06:53:14;;;;;;;28.20;15.10;;;;;;;;;;5006210;28;20189;-72
2021/11/10 06:55:39;;;;;;;29.60;14.77;;;;;;;;;;4999717;28;20811;-71
2021/11/10 06:58:05;;;;;;;29.67;15.60;;;;;;;;;;5008509;28;20194;-71
2021/11/10 07:00:31;;;;;;;29.63;14.73;;;;;;;;;;4999880;28;20197;-71
2021/11/10 07:02:57;;;;;;;34.03;16.60;;;;;;;;;;5004645;28;20225;-72
2021/11/10 07:05:22;;;;;;;37.20;16.83;;;;;;;;;;5006439;28;20207;-71
2021/11/10 07:07:48;;;;;;;38.10;17.63;;;;;;;;;;4999858;28;20202;-71
2021/11/10 07:10:13;;;;;;;39.30;18.40;;;;;;;;;;5006219;28;20190;-71
2021/11/10 07:12:38;;;;;;;37.27;17.97;;;;;;;;;;5001312;28;20199;-71
2021/11/10 07:15:05;;;;;;;36.83;17.13;;;;;;;;;;5008170;28;20241;-71
2021/11/10 07:17:30;;;;;;;42.67;17.67;;;;;;;;;;4313424;28;10000837;-72
2021/11/10 07:19:55;;;;;;;36.63;17.13;;;;;;;;;;5004939;28;20202;-71
2021/11/10 07:22:21;;;;;;;35.30;16.47;;;;;;;;;;4999636;28;20261;-70
2021/11/10 07:24:46;;;;;;;39.63;18.17;;;;;;;;;;5003175;28;20209;-71
2021/11/10 07:27:12;;;;;;;38.27;17.67;;;;;;;;;;4992489;28;20221;-71
2021/11/10 07:29:38;;;;;;;37.33;16.93;;;;;;;;;;5004097;28;20174;-71
2021/11/10 07:32:04;;;;;;;38.87;17.97;;;;;;;;;;5001199;28;20957;-72
2021/11/10 07:34:29;;;;;;;39.63;18.17;;;;;;;;;;4995285;28;20186;-71
2021/11/10 07:36:55;;;;;;;35.67;15.70;;;;;;;;;;5003043;28;20190;-71
2021/11/10 07:39:20;;;;;;;37.27;17.20;;;;;;;;;;4995685;28;20601;-71
2021/11/10 07:41:48;;;;;;;30.83;15.40;;;;;;;;;;5001255;28;21234;-71
2021/11/10 07:44:14;;;;;;;34.90;15.37;;;;;;;;;;4993621;28;20740;-71
2021/11/10 07:46:48;;;;;;;34.37;15.57;;;;;;;;;;5007277;28;20348;-71
2021/11/10 07:49:17;;;;;;;35.73;16.20;;;;;;;;;;4997786;28;20225;-71
2021/11/10 07:51:45;;;;;;;33.20;14.77;;;;;;;;;;5004777;28;20190;-71
2021/11/10 07:54:10;;;;;;;33.57;16.27;;;;;;;;;;5000198;28;20217;-71
2021/11/10 07:56:35;;;;;;;30.77;15.30;;;;;;;;;;5009942;28;20241;-72
2021/11/10 07:59:00;;;;;;;25.27;13.63;;;;;;;;;;4997986;28;20270;-71
2021/11/10 08:01:26;;;;;;;30.47;15.00;;;;;;;;;;5004525;28;20556;-71
2021/11/10 08:03:52;;;;;;;26.43;13.90;;;;;;;;;;5003324;28;20258;-71
2021/11/10 08:06:17;;;;;;;30.07;13.60;;;;;;;;;;5004470;28;20199;-71
2021/11/10 08:08:43;;;;;;;28.53;13.70;;;;;;;;;;5005791;28;20877;-71
2021/11/10 08:11:08;;;;;;;26.67;12.43;;;;;;;;;;4995736;28;20251;-71
2021/11/10 08:13:33;;;;;;;26.60;13.43;;;;;;;;;;5007008;28;20638;-72
2021/11/10 08:15:59;;;;;;;23.90;12.40;;;;;;;;;;4997375;28;20686;-71
2021/11/10 08:18:25;;;;;;;18.80;11.17;;;;;;;;;;5006457;28;20642;-71
2021/11/10 08:20:51;;;;;;;27.00;13.03;;;;;;;;;;4998011;28;20284;-72
2021/11/10 08:23:21;;;;;;;27.37;13.10;;;;;;;;;;5006777;28;20526;-72
2021/11/10 08:25:47;;;;;;;23.63;12.77;;;;;;;;;;4997177;28;20777;-72
2021/11/10 08:28:13;;;;;;;20.43;12.10;;;;;;;;;;5006512;28;20193;-73
2021/11/10 08:30:38;;;;;;;26.90;12.80;;;;;;;;;;4997984;28;20547;-72
2021/11/10 08:33:04;;;;;;;23.20;12.83;;;;;;;;;;5006410;28;20393;-71
2021/11/10 08:35:29;;;;;;;21.60;12.40;;;;;;;;;;4999217;28;20607;-72
2021/11/10 08:37:56;;;;;;;20.30;11.83;;;;;;;;;;5005598;28;20191;-72
2021/11/10 08:40:23;;;;;;;27.20;12.67;;;;;;;;;;5006365;28;20261;-72
2021/11/10 08:42:49;;;;;;;25.53;13.10;;;;;;;;;;5000177;28;20254;-72
2021/11/10 08:45:18;;;;;;;25.73;12.00;;;;;;;;;;5005274;28;20750;-72
2021/11/10 08:47:45;;;;;;;24.40;11.80;;;;;;;;;;5001787;28;20186;-72
2021/11/10 08:50:13;;;;;;;22.57;11.80;;;;;;;;;;5005748;28;20540;-73
2021/11/10 08:52:39;;;;;;;22.90;11.57;;;;;;;;;;4998137;28;20265;-73
2021/11/10 08:55:07;;;;;;;21.93;12.57;;;;;;;;;;5005031;28;20642;-73
2021/11/10 08:57:33;;;;;;;21.17;11.77;;;;;;;;;;4999498;28;20670;-73
2021/11/10 08:59:58;;;;;;;24.50;11.47;;;;;;;;;;5006265;28;20202;-73
2021/11/10 09:02:24;;;;;;;20.33;11.37;;;;;;;;;;4998600;28;20202;-72
2021/11/10 09:04:49;;;;;;;21.60;10.83;;;;;;;;;;5014446;28;20235;-72
2021/11/10 09:07:14;;;;;;;21.83;10.77;;;;;;;;;;5004754;28;20616;-72
2021/11/10 09:09:40;;;;;;;19.40;11.10;;;;;;;;;;5006064;28;20593;-73
2021/11/10 09:12:07;;;;;;;22.13;11.30;;;;;;;;;;5007182;28;20354;-73
2021/11/10 09:14:33;;;;;;;22.67;11.40;;;;;;;;;;5005493;28;20195;-72
2021/11/10 09:16:58;;;;;;;24.23;11.23;;;;;;;;;;5007273;28;20268;-72
2021/11/10 09:19:24;;;;;;;22.40;11.07;;;;;;;;;;4997610;28;20340;-72
2021/11/10 09:21:49;;;;;;;19.67;10.57;;;;;;;;;;5006751;28;20723;-72
2021/11/10 09:24:14;;;;;;;21.23;10.70;;;;;;;;;;4999763;28;20207;-71
2021/11/10 09:26:40;;;;;;;20.00;10.50;;;;;;;;;;5005127;28;20193;-71
2021/11/10 09:29:06;;;;;;;23.27;9.57;;;;;;;;;;4999808;28;20273;-73
2021/11/10 09:31:32;;;;;;;18.70;10.60;;;;;;;;;;5006397;28;20175;-72
2021/11/10 09:34:03;;;;;;;17.87;10.47;;;;;;;;;;4999630;28;20232;-72
2021/11/10 09:36:29;;;;;;;16.77;9.73;;;;;;;;;;5006867;28;20181;-73
2021/11/10 09:38:55;;;;;;;19.43;9.77;;;;;;;;;;4999008;28;20183;-72
2021/11/10 09:41:21;;;;;;;20.93;9.77;;;;;;;;;;5007218;28;20310;-72
2021/11/10 09:43:47;;;;;;;18.90;9.67;;;;;;;;;;5005852;28;20556;-72
2021/11/10 09:46:13;;;;;;;21.77;9.70;;;;;;;;;;4997893;28;20336;-73
2021/11/10 09:48:39;;;;;;;22.33;10.13;;;;;;;;;;5018317;28;20190;-72
2021/11/10 09:51:06;;;;;;;18.37;9.50;;;;;;;;;;5002512;28;20206;-73
2021/11/10 09:53:33;;;;;;;17.60;9.40;;;;;;;;;;5009024;28;20539;-72
2021/11/10 09:55:59;;;;;;;20.73;9.57;;;;;;;;;;5002194;28;20452;-72
2021/11/10 09:58:25;;;;;;;20.53;10.10;;;;;;;;;;5010332;28;20187;-72
2021/11/10 10:00:58;;;;;;;16.55;9.60;;;;;;;;;;5002631;28;20205;-73
2021/11/10 10:03:24;;;;;;;17.83;10.23;;;;;;;;;;5011006;28;20238;-72
2021/11/10 10:05:51;;;;;;;18.95;9.63;;;;;;;;;;5003040;28;20193;-73
2021/11/10 10:08:19;;;;;;;19.43;9.60;;;;;;;;;;5013178;28;20187;-73
2021/11/10 10:10:46;;;;;;;18.70;9.80;;;;;;;;;;5003883;28;20190;-73
2021/11/10 10:13:12;;;;;;;18.37;10.13;;;;;;;;;;5012644;28;20186;-72
2021/11/10 10:15:41;;;;;;;18.63;9.75;;;;;;;;;;5017370;28;20237;-72
2021/11/10 10:18:22;;;;;;;20.37;9.90;;;;;;;;;;5004995;28;20562;-73
2021/11/10 10:21:03;;;;;;;18.83;8.63;;;;;;;;;;5012428;28;20700;-72
2021/11/10 10:23:34;;;;;;;23.35;9.60;;;;;;;;;;5010847;28;20264;-72
2021/11/10 10:26:13;;;;;;;23.40;9.05;;;;;;;;;;5012591;28;20222;-73
2021/11/10 10:28:42;;;;;;;21.60;9.85;;;;;;;;;;5001144;28;20190;-72
2021/11/10 10:31:13;;;;;;;17.50;9.38;;;;;;;;;;5028430;28;20241;-72
2021/11/10 10:33:42;;;;;;;17.73;9.80;;;;;;;;;;5000222;28;20201;-72
2021/11/10 10:36:17;;;;;;;21.67;9.70;;;;;;;;;;5009102;28;20186;-72
2021/11/10 10:38:47;;;;;;;19.00;9.10;;;;;;;;;;5002995;28;20194;-72
2021/11/10 10:41:13;;;;;;;18.38;9.70;;;;;;;;;;5011047;28;20179;-72
2021/11/10 10:43:44;;;;;;;24.65;10.48;;;;;;;;;;5003062;28;20205;-73
2021/11/10 10:46:10;;;;;;;19.35;9.85;;;;;;;;;;5010288;28;20277;-72
2021/11/10 10:48:37;;;;;;;17.63;9.65;;;;;;;;;;5005881;28;20739;-73
2021/11/10 10:51:12;;;;;;;27.23;10.50;;;;;;;;;;5015930;28;20194;-73
2021/11/10 10:53:49;;;;;;;20.73;9.82;;;;;;;;;;5000744;28;20246;-73
2021/11/10 10:56:34;;;;;;;23.00;9.93;;;;;;;;;;5009347;28;20216;-73
2021/11/10 10:59:05;;;;;;;17.00;9.45;;;;;;;;;;5001972;28;20178;-73
2021/11/10 11:01:49;;;;;;;20.00;9.35;;;;;;;;;;5011476;28;20232;-73
2021/11/10 11:04:17;;;;;;;21.42;9.95;;;;;;;;;;5002047;28;20318;-72
2021/11/10 11:06:49;;;;;;;25.13;12.13;;;;;;;;;;5011546;28;20182;-72
2021/11/10 11:09:27;;;;;;;19.75;9.57;;;;;;;;;;5010362;28;20240;-73
2021/11/10 11:12:42;;;;;;;18.52;9.60;;;;;;;;;;5011499;28;20277;-73
2021/11/10 11:15:14;;;;;;;18.88;9.40;;;;;;;;;;5002547;28;20223;-73
2021/11/10 11:17:44;;;;;;;17.90;9.23;;;;;;;;;;5011677;28;20219;-73
2021/11/10 11:20:11;;;;;;;25.25;9.70;;;;;;;;;;5007972;28;20367;-73
2021/11/10 11:22:50;;;;;;;21.90;10.27;;;;;;;;;;5009925;28;20182;-73
2021/11/10 11:25:21;;;;;;;19.48;9.98;;;;;;;;;;5001375;28;20651;-73
2021/11/10 11:28:03;;;;;;;21.67;10.88;;;;;;;;;;5011943;28;20182;-73
2021/11/10 11:30:39;;;;;;;22.80;10.80;;;;;;;;;;5002318;28;20328;-73
2021/11/10 11:33:09;;;;;;;23.95;9.95;;;;;;;;;;5011749;28;20560;-73
2021/11/10 11:35:37;;;;;;;19.58;9.75;;;;;;;;;;5003503;28;20526;-73
2021/11/10 11:38:15;;;;;;;21.75;9.02;;;;;;;;;;5011217;28;20190;-73
2021/11/10 11:40:42;;;;;;;20.60;9.25;;;;;;;;;;5001801;28;20675;-73
2021/11/10 11:43:11;;;;;;;23.70;9.05;;;;;;;;;;5010062;28;20186;-73
2021/11/10 11:45:40;;;;;;;22.02;8.98;;;;;;;;;;5004144;28;20206;-73
2021/11/10 11:48:06;;;;;;;18.95;8.57;;;;;;;;;;5013266;28;20334;-73
2021/11/10 11:50:32;;;;;;;23.30;9.35;;;;;;;;;;5009466;28;20269;-73
2021/11/10 11:52:57;;;;;;;20.10;9.20;;;;;;;;;;5004299;28;20570;-73
2021/11/10 11:55:48;;;;;;;22.00;8.98;;;;;;;;;;5009132;28;20179;-73
2021/11/10 11:58:20;;;;;;;20.67;8.95;;;;;;;;;;5002903;28;20194;-72
2021/11/10 12:00:50;;;;;;;21.42;10.45;;;;;;;;;;5010875;28;20194;-72
2021/11/10 12:03:18;;;;;;;19.67;9.13;;;;;;;;;;5003840;28;20230;-72
2021/11/10 12:05:44;;;;;;;17.42;9.15;;;;;;;;;;5007048;28;20197;-72
2021/11/10 12:08:10;;;;;;;20.23;8.73;;;;;;;;;;5000145;28;20207;-73
2021/11/10 12:10:39;;;;;;;25.40;8.55;;;;;;;;;;5010876;28;20224;-73
2021/11/10 12:13:19;;;;;;;24.83;9.07;;;;;;;;;;5004737;28;20194;-73
2021/11/10 12:16:14;;;;;;;20.17;8.88;;;;;;;;;;5010004;28;20186;-73
2021/11/10 12:18:44;;;;;;;22.63;9.40;;;;;;;;;;5002358;28;20640;-72
2021/11/10 12:21:11;;;;;;;23.25;9.73;;;;;;;;;;5016941;28;20267;-73
2021/11/10 12:23:54;;;;;;;24.70;9.02;;;;;;;;;;4998841;28;20206;-72
2021/11/10 12:26:21;;;;;;;22.55;9.23;;;;;;;;;;5008860;28;20209;-72
2021/11/10 12:28:55;;;;;;;18.70;8.88;;;;;;;;;;5001641;28;20276;-73
2021/11/10 12:31:39;;;;;;;23.83;9.80;;;;;;;;;;5006870;28;20617;-73
2021/11/10 12:34:19;;;;;;;15.85;8.07;;;;;;;;;;5000493;28;20182;-73
2021/11/10 12:37:04;;;;;;;20.25;9.15;;;;;;;;;;5011830;28;20554;-73
2021/11/10 12:39:34;;;;;;;19.48;8.77;;;;;;;;;;5000584;28;20224;-71
2021/11/10 12:42:04;;;;;;;22.90;9.75;;;;;;;;;;5010197;28;20194;-72
2021/11/10 12:44:32;;;;;;;20.15;9.00;;;;;;;;;;5000816;28;20201;-72
2021/11/10 12:46:58;;;;;;;24.13;9.15;;;;;;;;;;5009653;28;20197;-72
2021/11/10 12:49:25;;;;;;;23.83;9.13;;;;;;;;;;5002093;28;20654;-72
2021/11/10 12:52:09;;;;;;;25.00;8.98;;;;;;;;;;5010570;28;20224;-72
2021/11/10 12:54:35;;;;;;;24.27;9.68;;;;;;;;;;4999433;28;20190;-71
2021/11/10 12:57:01;;;;;;;30.10;9.77;;;;;;;;;;5009803;28;20234;-72
2021/11/10 12:59:35;;;;;;;22.05;9.00;;;;;;;;;;5006424;28;20642;-71
2021/11/10 13:02:11;;;;;;;20.67;9.43;;;;;;;;;;5012060;28;20705;-72
2021/11/10 13:04:37;;;;;;;19.75;9.57;;;;;;;;;;5008442;28;20308;-72
2021/11/10 13:07:08;;;;;;;24.85;10.02;;;;;;;;;;5002328;28;20288;-72
2021/11/10 13:09:35;;;;;;;20.50;9.93;;;;;;;;;;5009550;28;20185;-72
2021/11/10 13:12:08;;;;;;;23.20;10.00;;;;;;;;;;5001941;28;20190;-72
2021/11/10 13:14:39;;;;;;;19.70;8.77;;;;;;;;;;5009204;28;20178;-72
2021/11/10 13:17:14;;;;;;;21.70;10.50;;;;;;;;;;5003284;28;20189;-72
2021/11/10 13:19:46;;;;;;;22.52;9.40;;;;;;;;;;5011900;28;20195;-71
2021/11/10 13:22:33;;;;;;;26.85;9.68;;;;;;;;;;5009303;28;20198;-73
2021/11/10 13:25:17;;;;;;;20.95;9.32;;;;;;;;;;5014087;28;20601;-73
2021/11/10 13:27:46;;;;;;;19.02;9.38;;;;;;;;;;5005171;28;20201;-73
2021/11/10 13:30:25;;;;;;;20.63;9.82;;;;;;;;;;5011754;28;20288;-73
2021/11/10 13:32:51;;;;;;;22.20;8.57;;;;;;;;;;5005168;28;20282;-73
2021/11/10 13:35:17;;;;;;;22.40;10.63;;;;;;;;;;5010799;28;20568;-72
2021/11/10 13:37:47;;;;;;;25.35;8.90;;;;;;;;;;5007585;28;20194;-72
2021/11/10 13:40:16;;;;;;;30.60;9.27;;;;;;;;;;5010124;28;20646;-72
2021/11/10 13:42:42;;;;;;;22.25;10.27;;;;;;;;;;5004525;28;20226;-73
2021/11/10 13:45:13;;;;;;;26.58;10.20;;;;;;;;;;5012039;28;20206;-72
2021/11/10 13:47:40;;;;;;;22.42;10.32;;;;;;;;;;5004788;28;20193;-72
2021/11/10 13:50:08;;;;;;;20.42;10.95;;;;;;;;;;5005435;28;20285;-72
2021/11/10 13:52:34;;;;;;;25.42;10.38;;;;;;;;;;5003314;28;20537;-72
2021/11/10 13:55:02;;;;;;;23.83;10.45;;;;;;;;;;5010275;28;20233;-72
2021/11/10 13:57:33;;;;;;;25.40;9.82;;;;;;;;;;5012369;28;20214;-71
2021/11/10 14:00:04;;;;;;;24.58;10.40;;;;;;;;;;5001414;28;20623;-72
2021/11/10 14:02:32;;;;;;;24.73;10.23;;;;;;;;;;5010652;28;20199;-72
2021/11/10 14:04:59;;;;;;;21.80;9.82;;;;;;;;;;5003637;28;20238;-71
2021/11/10 14:07:29;;;;;;;22.85;10.18;;;;;;;;;;5011770;28;20190;-72
2021/11/10 14:10:07;;;;;;;22.67;9.88;;;;;;;;;;5006820;28;20601;-73
2021/11/10 14:12:35;;;;;;;15.45;9.23;;;;;;;;;;5011181;28;20281;-73
2021/11/10 14:15:07;;;;;;;25.33;10.38;;;;;;;;;;5006179;28;20197;-72
2021/11/10 14:17:47;;;;;;;20.58;10.50;;;;;;;;;;5012238;28;20612;-72
2021/11/10 14:20:27;;;;;;;28.13;9.63;;;;;;;;;;5003044;28;20208;-72
2021/11/10 14:23:06;;;;;;;21.20;10.20;;;;;;;;;;5012086;28;20645;-72
2021/11/10 14:25:47;;;;;;;19.25;9.95;;;;;;;;;;5003409;28;20343;-73